Time;durP1;ratioP1;P1;durP2;ratioP2;P2;SDS_P1;SDS_P2;PMS_P1;PMS_P2;Temp;Humidity;BMP_temperature;BMP_pressure;BME280_temperature;BME280_humidity;BME280_pressure;Samples;Min_cycle;Max_cycle;Signal;HPM_P1;HPM_P2
2024/01/16 00:01:18;;;;;;;4.50;1.63;;;4.10;99.90;;;;;;4994441;28;20356;-17
2024/01/16 00:03:44;;;;;;;3.53;1.20;;;4.10;99.90;;;;;;4974179;28;20054;-18
2024/01/16 00:06:10;;;;;;;3.40;1.50;;;4.20;99.90;;;;;;4990821;28;20056;-17
2024/01/16 00:08:36;;;;;;;2.83;1.20;;;4.10;99.90;;;;;;4994870;28;20423;-17
2024/01/16 00:11:03;;;;;;;2.95;1.45;;;4.20;99.90;;;;;;4988384;28;20041;-18
2024/01/16 00:13:29;;;;;;;3.40;1.58;;;4.20;99.90;;;;;;4991916;28;20514;-17
2024/01/16 00:15:56;;;;;;;2.57;1.30;;;4.20;99.90;;;;;;4992463;28;20335;-17
2024/01/16 00:18:22;;;;;;;3.78;1.20;;;4.20;99.90;;;;;;4974433;28;20038;-17
2024/01/16 00:20:48;;;;;;;2.70;1.45;;;4.20;99.90;;;;;;4993590;28;20130;-17
2024/01/16 00:23:14;;;;;;;3.60;1.30;;;4.20;99.90;;;;;;4973762;28;20190;-17
2024/01/16 00:25:41;;;;;;;4.37;1.13;;;4.20;99.90;;;;;;4993154;28;20034;-17
2024/01/16 00:28:06;;;;;;;3.85;1.50;;;4.20;99.90;;;;;;4978001;28;20042;-18
2024/01/16 00:30:33;;;;;;;1.88;1.08;;;4.20;99.90;;;;;;4992440;28;20050;-19
2024/01/16 00:32:59;;;;;;;2.70;1.50;;;4.20;99.90;;;;;;4991561;28;20038;-18
2024/01/16 00:35:25;;;;;;;4.13;1.67;;;4.20;99.90;;;;;;4992016;28;20038;-18
2024/01/16 00:37:51;;;;;;;4.65;1.70;;;4.20;99.90;;;;;;4993423;28;20018;-16
2024/01/16 00:40:16;;;;;;;3.37;1.43;;;4.20;99.90;;;;;;4990119;28;20030;-18
2024/01/16 00:42:43;;;;;;;3.42;1.40;;;4.20;99.90;;;;;;4989657;28;20034;-17
2024/01/16 00:45:09;;;;;;;3.27;1.13;;;4.20;99.90;;;;;;4993674;28;20205;-18
2024/01/16 00:47:34;;;;;;;3.75;1.50;;;2.40;99.90;;;;;;4994176;28;20046;-17
2024/01/16 00:50:01;;;;;;;2.47;1.30;;;4.20;99.90;;;;;;4992264;28;20038;-17
2024/01/16 00:52:27;;;;;;;3.03;1.50;;;4.10;99.90;;;;;;4976941;28;20095;-17
2024/01/16 00:54:52;;;;;;;2.72;1.40;;;4.20;99.90;;;;;;4972805;28;20042;-17
2024/01/16 00:57:19;;;;;;;3.10;1.23;;;4.20;99.90;;;;;;4991247;28;20227;-17
2024/01/16 00:59:48;;;;;;;4.18;1.30;;;4.20;99.90;;;;;;4987555;28;20042;-17
2024/01/16 01:02:14;;;;;;;3.38;1.30;;;4.10;99.90;;;;;;4990267;28;20064;-17
2024/01/16 01:04:41;;;;;;;2.83;1.40;;;4.10;99.90;;;;;;4991565;28;20034;-17
2024/01/16 01:07:08;;;;;;;3.28;1.35;;;4.20;99.90;;;;;;4990812;28;20762;-17
2024/01/16 01:09:34;;;;;;;2.63;1.30;;;4.10;99.90;;;;;;4990918;28;20042;-17
2024/01/16 01:11:59;;;;;;;3.15;1.30;;;4.10;99.90;;;;;;4976993;28;20042;-17
2024/01/16 01:14:28;;;;;;;5.03;1.50;;;5.80;99.90;;;;;;4992384;28;20102;-17
2024/01/16 01:16:54;;;;;;;4.13;1.30;;;4.10;99.90;;;;;;4991516;28;20095;-19
2024/01/16 01:19:20;;;;;;;3.67;1.40;;;4.10;99.90;;;;;;4994525;28;20118;-18
2024/01/16 01:21:46;;;;;;;2.78;1.52;;;4.10;99.90;;;;;;4987074;28;20054;-18
2024/01/16 01:24:11;;;;;;;4.03;1.70;;;4.00;99.90;;;;;;4970731;28;20062;-17
2024/01/16 01:26:37;;;;;;;3.22;1.33;;;4.00;99.90;;;;;;4992567;28;20046;-18
2024/01/16 01:29:03;;;;;;;3.60;1.57;;;4.00;99.90;;;;;;4991772;28;20034;-18
2024/01/16 01:31:29;;;;;;;5.13;1.75;;;4.00;99.90;;;;;;4991106;28;20349;-18
2024/01/16 01:33:54;;;;;;;2.93;1.40;;;3.90;99.90;;;;;;4970122;28;20039;-17
2024/01/16 01:36:20;;;;;;;3.60;1.25;;;3.90;99.90;;;;;;4993067;28;20069;-19
2024/01/16 01:38:46;;;;;;;2.07;1.00;;;3.90;99.90;;;;;;4995142;28;20350;-18
2024/01/16 01:41:12;;;;;;;2.13;1.08;;;3.80;99.90;;;;;;4989806;28;20049;-17
2024/01/16 01:43:38;;;;;;;3.70;1.20;;;3.80;99.90;;;;;;4987343;28;20046;-18
2024/01/16 01:46:11;;;;;;;2.70;1.58;;;3.80;99.90;;;;;;4991642;28;20049;-26
2024/01/16 01:48:44;;;;;;;2.95;1.30;;;3.70;99.90;;;;;;4974972;28;20042;-17
2024/01/16 01:51:11;;;;;;;5.03;1.65;;;3.70;99.90;;;;;;4991164;28;20050;-18
2024/01/16 01:53:39;;;;;;;5.00;1.90;;;3.70;99.90;;;;;;4991393;28;20312;-18
2024/01/16 01:56:10;;;;;;;3.17;1.40;;;3.60;99.90;;;;;;4994281;28;20100;-17
2024/01/16 01:58:40;;;;;;;3.95;1.65;;;3.60;99.90;;;;;;4993852;28;20337;-19
2024/01/16 02:01:09;;;;;;;3.13;1.42;;;3.60;99.90;;;;;;4989912;28;20348;-19
2024/01/16 02:03:45;;;;;;;4.90;1.40;;;3.60;99.90;;;;;;4990829;28;20042;-20
2024/01/16 02:06:15;;;;;;;4.77;1.70;;;3.50;99.90;;;;;;4989821;28;20022;-20
2024/01/16 02:08:41;;;;;;;3.67;1.40;;;3.50;99.90;;;;;;4971814;28;20053;-20
2024/01/16 02:11:07;;;;;;;5.07;1.50;;;3.50;99.90;;;;;;4989304;28;20034;-20
2024/01/16 02:13:33;;;;;;;3.38;1.50;;;3.50;99.90;;;;;;4989072;28;20109;-19
2024/01/16 02:15:59;;;;;;;2.67;1.13;;;3.40;99.90;;;;;;4993356;28;20037;-21
2024/01/16 02:18:25;;;;;;;3.42;1.30;;;3.40;99.90;;;;;;4984315;28;20281;-21
2024/01/16 02:20:51;;;;;;;3.35;1.20;;;3.40;99.90;;;;;;4990598;28;20311;-20
2024/01/16 02:23:29;;;;;;;2.38;1.23;;;3.40;99.90;;;;;;4977069;28;20404;-20
2024/01/16 02:25:55;;;;;;;5.23;1.30;;;3.40;99.90;;;;;;4972876;28;20185;-20
2024/01/16 02:28:20;;;;;;;2.50;1.10;;;3.40;99.90;;;;;;4991734;28;20042;-20
2024/01/16 02:30:46;;;;;;;2.83;1.10;;;3.30;99.90;;;;;;4967265;28;20235;-20
2024/01/16 02:33:12;;;;;;;1.97;0.97;;;3.40;99.90;;;;;;4993234;28;20366;-20
2024/01/16 02:35:38;;;;;;;3.40;1.30;;;3.30;99.90;;;;;;4988527;28;20381;-20
2024/01/16 02:38:04;;;;;;;4.30;1.40;;;3.30;99.90;;;;;;4976194;28;20035;-20
2024/01/16 02:40:30;;;;;;;2.75;1.15;;;3.30;99.90;;;;;;4991366;28;20208;-20
2024/01/16 02:42:56;;;;;;;2.53;1.40;;;3.30;99.90;;;;;;4990997;28;20237;-20
2024/01/16 02:45:22;;;;;;;2.97;1.38;;;3.30;99.90;;;;;;4989639;28;20034;-21
2024/01/16 02:47:48;;;;;;;4.97;1.20;;;3.20;99.90;;;;;;4989784;28;20026;-21
2024/01/16 02:50:14;;;;;;;3.10;1.20;;;3.20;99.90;;;;;;4973009;28;20137;-18
2024/01/16 02:52:39;;;;;;;3.85;1.40;;;3.20;99.90;;;;;;4975860;28;20061;-17
2024/01/16 02:55:06;;;;;;;2.90;1.10;;;4.40;99.90;;;;;;4996964;28;20342;-18
2024/01/16 02:57:32;;;;;;;2.03;1.00;;;3.10;99.90;;;;;;4993554;28;20041;-18
2024/01/16 02:59:57;;;;;;;3.30;1.40;;;3.10;99.90;;;;;;4977526;28;20244;-17
2024/01/16 03:02:23;;;;;;;2.63;1.30;;;3.10;99.90;;;;;;4988025;28;20058;-17
2024/01/16 03:04:49;;;;;;;3.13;1.10;;;3.10;99.90;;;;;;4990634;28;20050;-19
2024/01/16 03:07:15;;;;;;;3.88;1.10;;;3.00;99.90;;;;;;4972281;28;20073;-18
2024/01/16 03:09:41;;;;;;;4.07;1.40;;;3.00;99.90;;;;;;4988369;28;20027;-20
2024/01/16 03:12:07;;;;;;;2.08;1.10;;;3.00;99.90;;;;;;4983105;28;20034;-23
2024/01/16 03:14:34;;;;;;;1.80;1.00;;;3.00;99.90;;;;;;4990978;28;20343;-21
2024/01/16 03:17:03;;;;;;;2.33;1.30;;;2.90;99.90;;;;;;4977097;28;20242;-19
2024/01/16 03:19:29;;;;;;;2.45;1.30;;;2.90;99.90;;;;;;4973146;28;20505;-20
2024/01/16 03:21:55;;;;;;;2.83;1.20;;;2.90;99.90;;;;;;4988064;28;20097;-20
2024/01/16 03:24:21;;;;;;;3.95;1.40;;;2.90;99.90;;;;;;4989157;28;20097;-19
2024/01/16 03:26:48;;;;;;;2.47;1.08;;;2.90;99.90;;;;;;4970630;28;20031;-21
2024/01/16 03:29:13;;;;;;;1.75;1.10;;;2.90;99.90;;;;;;4988265;28;20286;-20
2024/01/16 03:31:39;;;;;;;4.83;1.73;;;2.90;99.90;;;;;;4992965;28;20264;-20
2024/01/16 03:34:05;;;;;;;3.72;1.52;;;2.80;99.90;;;;;;4973844;28;20493;-20
2024/01/16 03:36:31;;;;;;;5.27;1.57;;;4.60;99.90;;;;;;4990407;28;20030;-20
2024/01/16 03:38:56;;;;;;;3.20;1.23;;;2.80;99.90;;;;;;4994558;28;20288;-19
2024/01/16 03:41:22;;;;;;;2.92;1.23;;;2.80;99.90;;;;;;4975267;28;20034;-19
2024/01/16 03:43:48;;;;;;;2.23;1.07;;;2.80;99.90;;;;;;4990373;28;20065;-20
2024/01/16 03:46:13;;;;;;;2.90;1.20;;;2.80;99.90;;;;;;4994216;28;20041;-20
2024/01/16 03:48:39;;;;;;;3.65;1.38;;;2.70;99.90;;;;;;4988556;28;20030;-20
2024/01/16 03:51:06;;;;;;;2.20;1.30;;;2.80;99.90;;;;;;4972733;28;20060;-20
2024/01/16 03:53:32;;;;;;;3.40;1.30;;;2.70;99.90;;;;;;4990646;28;20357;-24
2024/01/16 03:55:58;;;;;;;4.07;1.65;;;2.70;99.90;;;;;;4972710;28;20034;-19
2024/01/16 03:58:24;;;;;;;2.60;1.20;;;1.40;99.90;;;;;;4990839;28;20240;-17
2024/01/16 04:00:50;;;;;;;3.83;1.27;;;2.60;99.90;;;;;;4974132;28;20097;-19
2024/01/16 04:03:17;;;;;;;4.45;1.20;;;2.70;99.90;;;;;;4973350;28;20046;-19
2024/01/16 04:05:43;;;;;;;4.68;1.50;;;2.70;99.90;;;;;;4990838;28;20038;-18
2024/01/16 04:08:09;;;;;;;2.38;1.20;;;2.70;99.90;;;;;;4987357;28;20105;-18
2024/01/16 04:10:35;;;;;;;6.07;1.60;;;2.70;99.90;;;;;;4988856;28;20030;-19
2024/01/16 04:13:01;;;;;;;4.25;1.55;;;2.70;99.90;;;;;;4972720;28;20034;-18
2024/01/16 04:15:28;;;;;;;3.08;1.30;;;2.60;99.90;;;;;;4989428;28;20468;-18
2024/01/16 04:17:54;;;;;;;4.60;1.58;;;2.60;99.90;;;;;;4989631;28;20061;-18
2024/01/16 04:20:20;;;;;;;3.50;1.30;;;2.60;99.90;;;;;;4989390;28;20292;-20
2024/01/16 04:22:46;;;;;;;3.55;1.38;;;2.60;99.90;;;;;;4983076;28;20113;-20
2024/01/16 04:25:12;;;;;;;3.33;1.30;;;2.60;99.90;;;;;;4990780;28;20327;-23
2024/01/16 04:27:38;;;;;;;4.93;1.70;;;2.60;99.90;;;;;;4991177;28;20061;-22
2024/01/16 04:30:05;;;;;;;3.40;1.30;;;2.60;99.90;;;;;;4956418;28;20057;-19
2024/01/16 04:32:30;;;;;;;3.88;1.48;;;2.70;99.90;;;;;;4991556;28;20053;-21
2024/01/16 04:34:56;;;;;;;3.33;1.40;;;2.60;99.90;;;;;;4979200;28;20566;-20
2024/01/16 04:37:22;;;;;;;3.03;1.30;;;3.30;99.90;;;;;;4959868;28;20042;-21
2024/01/16 04:39:48;;;;;;;3.58;1.65;;;2.60;99.90;;;;;;4993318;28;20041;-21
2024/01/16 04:42:13;;;;;;;2.23;1.40;;;2.60;99.90;;;;;;4978974;28;20046;-22
2024/01/16 04:44:39;;;;;;;4.38;1.40;;;2.60;99.90;;;;;;4992026;28;20038;-20
2024/01/16 04:47:05;;;;;;;3.97;1.50;;;2.60;99.90;;;;;;4980312;28;20334;-21
2024/01/16 04:49:31;;;;;;;3.50;1.30;;;2.60;99.90;;;;;;4992695;28;20042;-21
2024/01/16 04:51:56;;;;;;;3.70;1.30;;;2.60;99.90;;;;;;4990997;28;20098;-21
2024/01/16 04:54:22;;;;;;;2.60;1.38;;;2.50;99.90;;;;;;4993465;28;20354;-22
2024/01/16 04:56:48;;;;;;;2.30;1.10;;;2.50;99.90;;;;;;4991543;28;20260;-20
2024/01/16 04:59:13;;;;;;;1.88;1.20;;;2.50;99.90;;;;;;4990468;28;20343;-20
2024/01/16 05:01:39;;;;;;;4.57;1.73;;;2.50;99.90;;;;;;4994230;28;20037;-22
2024/01/16 05:04:07;;;;;;;9.35;1.67;;;2.50;99.90;;;;;;4991673;28;20031;-20
2024/01/16 05:06:34;;;;;;;4.78;1.70;;;2.40;99.90;;;;;;4992779;28;20041;-20
2024/01/16 05:09:00;;;;;;;3.33;1.53;;;2.40;99.90;;;;;;4975421;28;20085;-19
2024/01/16 05:11:26;;;;;;;3.95;2.30;;;2.50;99.90;;;;;;4989998;28;20330;-19
2024/01/16 05:13:57;;;;;;;4.97;1.73;;;2.40;99.90;;;;;;4991615;28;20487;-18
2024/01/16 05:16:26;;;;;;;4.15;1.70;;;2.30;99.90;;;;;;4993978;28;20117;-19
2024/01/16 05:18:52;;;;;;;3.03;1.38;;;2.30;99.90;;;;;;4992252;28;20034;-19
2024/01/16 05:21:18;;;;;;;3.60;1.75;;;2.30;99.90;;;;;;4990940;28;20054;-19
2024/01/16 05:23:44;;;;;;;3.67;1.50;;;2.30;99.90;;;;;;4992660;28;20034;-19
2024/01/16 05:26:10;;;;;;;4.10;1.50;;;2.20;99.90;;;;;;4978489;28;20097;-18
2024/01/16 05:28:35;;;;;;;4.32;1.92;;;2.20;99.90;;;;;;4989316;28;20319;-19
2024/01/16 05:31:01;;;;;;;3.63;1.73;;;2.20;99.90;;;;;;4992549;28;20109;-19
2024/01/16 05:33:27;;;;;;;4.15;1.70;;;2.20;99.90;;;;;;4991093;28;20330;-19
2024/01/16 05:35:53;;;;;;;3.40;1.57;;;2.20;99.90;;;;;;4975832;28;20433;-19
2024/01/16 05:38:19;;;;;;;4.43;1.77;;;2.10;99.90;;;;;;4991379;28;20043;-19
2024/01/16 05:40:44;;;;;;;2.93;1.50;;;2.10;99.90;;;;;;4994094;28;20297;-19
2024/01/16 05:43:10;;;;;;;3.35;1.58;;;2.10;99.90;;;;;;4992847;28;20061;-19
2024/01/16 05:45:36;;;;;;;4.63;1.80;;;2.10;99.90;;;;;;4993131;28;20034;-20
2024/01/16 05:48:02;;;;;;;4.40;1.80;;;2.10;99.90;;;;;;4975012;28;20038;-19
2024/01/16 05:50:28;;;;;;;3.83;1.52;;;2.10;99.90;;;;;;4991563;28;20361;-19
2024/01/16 05:52:54;;;;;;;7.57;3.13;;;2.10;99.90;;;;;;4971858;28;20030;-18
2024/01/16 05:55:21;;;;;;;7.65;2.90;;;2.10;99.90;;;;;;4992252;28;20038;-19
2024/01/16 05:57:47;;;;;;;10.18;4.10;;;2.10;99.90;;;;;;4992483;28;20093;-18
2024/01/16 06:00:13;;;;;;;8.67;3.60;;;2.10;99.90;;;;;;4992640;28;20022;-19
2024/01/16 06:02:38;;;;;;;7.13;2.75;;;2.10;99.90;;;;;;4992290;28;20261;-21
2024/01/16 06:05:05;;;;;;;5.40;2.63;;;2.10;99.90;;;;;;4993456;28;20047;-20
2024/01/16 06:07:31;;;;;;;6.77;2.60;;;2.20;99.90;;;;;;4992822;28;20034;-18
2024/01/16 06:09:57;;;;;;;4.57;2.22;;;2.10;99.90;;;;;;4994970;28;20403;-20
2024/01/16 06:12:22;;;;;;;7.90;2.80;;;2.10;99.90;;;;;;4992284;28;20058;-18
2024/01/16 06:14:48;;;;;;;7.75;3.28;;;2.00;99.90;;;;;;4995814;28;20044;-19
2024/01/16 06:17:14;;;;;;;8.23;3.00;;;0.80;99.90;;;;;;4992993;28;20030;-19
2024/01/16 06:19:39;;;;;;;8.30;3.10;;;2.00;99.90;;;;;;4995567;28;20045;-19
2024/01/16 06:22:05;;;;;;;5.67;2.60;;;2.00;99.90;;;;;;4997756;28;20048;-20
2024/01/16 06:24:36;;;;;;;6.15;2.05;;;2.00;99.90;;;;;;4992861;28;20042;-19
2024/01/16 06:27:04;;;;;;;5.40;1.67;;;2.00;99.90;;;;;;4978964;28;20485;-20
2024/01/16 06:29:29;;;;;;;7.15;3.08;;;2.00;99.90;;;;;;4982996;28;20265;-19
2024/01/16 06:31:55;;;;;;;6.78;2.95;;;2.00;99.90;;;;;;4992408;28;20056;-20
2024/01/16 06:34:21;;;;;;;6.53;2.60;;;2.00;99.90;;;;;;4981629;28;20081;-19
2024/01/16 06:36:46;;;;;;;7.00;2.70;;;2.00;99.90;;;;;;4989582;28;20041;-20
2024/01/16 06:39:13;;;;;;;3.90;1.93;;;2.00;99.90;;;;;;4996373;28;20072;-20
2024/01/16 06:41:41;;;;;;;8.13;2.65;;;2.00;99.90;;;;;;4992127;28;20215;-20
2024/01/16 06:44:06;;;;;;;4.93;2.20;;;2.00;99.90;;;;;;4992999;28;20181;-20
2024/01/16 06:46:32;;;;;;;5.33;2.40;;;2.00;99.90;;;;;;4992659;28;20073;-20
2024/01/16 06:48:58;;;;;;;6.40;2.28;;;2.00;99.90;;;;;;4992729;28;20034;-20
2024/01/16 06:51:24;;;;;;;5.27;2.30;;;2.00;99.90;;;;;;4992442;28;20041;-19
2024/01/16 06:53:49;;;;;;;4.63;1.85;;;2.00;99.90;;;;;;4977126;28;20357;-19
2024/01/16 06:56:15;;;;;;;4.77;2.10;;;2.10;99.90;;;;;;4989738;28;20034;-20
2024/01/16 06:58:41;;;;;;;5.73;1.80;;;2.10;99.90;;;;;;4990845;28;20388;-21
2024/01/16 07:01:08;;;;;;;5.53;1.70;;;2.20;99.90;;;;;;4991679;28;20338;-19
2024/01/16 07:03:34;;;;;;;5.32;2.00;;;2.20;99.90;;;;;;4993541;28;20042;-21
2024/01/16 07:06:00;;;;;;;5.13;2.07;;;4.30;99.90;;;;;;4990873;28;20089;-20
2024/01/16 07:08:25;;;;;;;5.93;2.10;;;2.20;99.90;;;;;;4992631;28;20057;-23
2024/01/16 07:10:51;;;;;;;4.70;1.93;;;2.20;99.90;;;;;;4994214;28;20043;-20
2024/01/16 07:13:17;;;;;;;4.25;1.90;;;2.30;99.90;;;;;;4986979;28;20078;-21
2024/01/16 07:15:43;;;;;;;4.22;2.15;;;2.30;99.90;;;;;;4991555;28;20266;-19
2024/01/16 07:18:09;;;;;;;7.37;2.03;;;2.30;99.90;;;;;;4985981;28;20026;-20
2024/01/16 07:20:34;;;;;;;6.10;2.10;;;2.30;99.90;;;;;;4993175;28;20367;-20
2024/01/16 07:23:02;;;;;;;4.77;1.90;;;2.30;99.90;;;;;;4993684;28;20048;-20
2024/01/16 07:25:28;;;;;;;5.72;2.30;;;2.30;99.90;;;;;;4988722;28;20084;-19
2024/01/16 07:27:53;;;;;;;7.05;2.28;;;2.30;99.90;;;;;;4990961;28;20043;-20
2024/01/16 07:30:19;;;;;;;6.77;1.97;;;2.30;99.90;;;;;;4990129;28;20401;-19
2024/01/16 07:32:45;;;;;;;4.25;1.77;;;2.30;99.90;;;;;;4992900;28;20326;-19
2024/01/16 07:35:11;;;;;;;5.33;2.43;;;2.30;99.90;;;;;;4992977;28;20333;-21
2024/01/16 07:37:37;;;;;;;6.40;2.28;;;2.30;99.90;;;;;;4984899;28;20253;-21
2024/01/16 07:40:05;;;;;;;8.30;3.03;;;2.40;99.90;;;;;;4989489;28;20239;-21
2024/01/16 07:42:34;;;;;;;8.32;3.20;;;2.40;99.90;;;;;;4988078;28;20118;-20
2024/01/16 07:45:04;;;;;;;7.75;2.95;;;2.40;99.90;;;;;;4987887;28;20033;-20
2024/01/16 07:47:32;;;;;;;9.23;2.50;;;2.40;99.90;;;;;;4968344;28;20054;-19
2024/01/16 07:49:59;;;;;;;6.63;2.40;;;2.40;99.90;;;;;;4990942;28;20220;-20
2024/01/16 07:52:27;;;;;;;5.28;2.17;;;2.40;99.90;;;;;;4974355;28;20038;-20
2024/01/16 07:54:52;;;;;;;6.95;2.75;;;0.80;99.90;;;;;;4977881;28;20044;-19
2024/01/16 07:57:18;;;;;;;4.80;1.87;;;2.40;99.90;;;;;;4973692;28;20453;-19
2024/01/16 07:59:44;;;;;;;9.67;2.10;;;2.40;99.90;;;;;;4984368;28;20803;-21
2024/01/16 08:02:10;;;;;;;6.00;2.33;;;2.40;99.90;;;;;;4987699;28;20065;-23
2024/01/16 08:04:36;;;;;;;5.73;2.60;;;2.10;99.90;;;;;;4986428;28;20038;-22
2024/01/16 08:07:02;;;;;;;6.90;2.38;;;2.40;99.90;;;;;;4971106;28;20625;-21
2024/01/16 08:09:27;;;;;;;5.32;2.22;;;2.40;99.90;;;;;;4979455;28;20050;-22
2024/01/16 08:11:53;;;;;;;7.53;2.60;;;2.50;99.90;;;;;;4992967;28;20076;-22
2024/01/16 08:14:19;;;;;;;5.93;2.20;;;2.40;99.90;;;;;;4998010;28;20262;-22
2024/01/16 08:16:44;;;;;;;4.60;2.50;;;2.50;99.90;;;;;;4993940;28;20231;-22
2024/01/16 08:19:10;;;;;;;4.25;1.83;;;2.50;99.90;;;;;;4989959;28;20042;-23
2024/01/16 08:21:36;;;;;;;4.57;2.23;;;2.50;99.90;;;;;;4982433;28;20054;-22
2024/01/16 08:24:02;;;;;;;7.18;2.63;;;2.50;99.90;;;;;;4994584;28;20085;-22
2024/01/16 08:26:28;;;;;;;4.20;2.30;;;2.60;99.90;;;;;;4989423;28;20466;-24
2024/01/16 08:28:55;;;;;;;4.90;2.10;;;2.60;99.90;;;;;;4974430;28;20038;-23
2024/01/16 08:31:20;;;;;;;4.68;2.20;;;2.60;99.90;;;;;;4989093;28;20049;-22
2024/01/16 08:33:47;;;;;;;4.00;1.75;;;2.60;99.90;;;;;;4992307;28;20073;-23
2024/01/16 08:36:13;;;;;;;6.07;2.40;;;2.60;99.90;;;;;;4990732;28;20034;-23
2024/01/16 08:38:40;;;;;;;5.35;2.25;;;2.70;99.90;;;;;;4990889;28;20368;-24
2024/01/16 08:41:06;;;;;;;6.95;2.20;;;2.70;99.90;;;;;;4993104;28;20196;-20
2024/01/16 08:43:35;;;;;;;9.93;3.53;;;2.70;99.90;;;;;;4961360;28;20042;-20
2024/01/16 08:46:01;;;;;;;6.45;2.90;;;2.70;99.90;;;;;;4972589;28;20049;-20
2024/01/16 08:48:27;;;;;;;7.57;3.23;;;2.70;99.90;;;;;;4976585;28;20262;-21
2024/01/16 08:50:54;;;;;;;8.45;3.30;;;2.70;99.90;;;;;;4988260;28;20114;-20
2024/01/16 08:53:22;;;;;;;9.10;3.83;;;2.80;99.90;;;;;;4990203;28;20263;-19
2024/01/16 08:55:48;;;;;;;5.72;2.60;;;2.70;99.90;;;;;;4970508;28;20130;-19
2024/01/16 08:58:14;;;;;;;4.88;2.35;;;2.70;99.90;;;;;;4991623;28;20465;-21
2024/01/16 09:00:40;;;;;;;6.87;2.67;;;2.70;99.90;;;;;;4974945;28;20325;-20
2024/01/16 09:03:06;;;;;;;4.35;2.05;;;2.80;99.90;;;;;;4990577;28;20023;-19
2024/01/16 09:05:31;;;;;;;4.00;2.10;;;2.80;99.90;;;;;;4989876;28;20045;-21
2024/01/16 09:07:57;;;;;;;4.90;1.90;;;2.80;99.90;;;;;;4990607;28;20096;-19
2024/01/16 09:10:22;;;;;;;5.50;2.10;;;2.80;99.90;;;;;;4995868;28;20462;-20
2024/01/16 09:12:48;;;;;;;5.85;2.50;;;2.80;99.90;;;;;;4980302;28;20041;-20
2024/01/16 09:15:15;;;;;;;4.10;2.20;;;2.80;99.90;;;;;;4996352;28;20318;-21
2024/01/16 09:17:41;;;;;;;5.97;2.50;;;2.80;99.90;;;;;;4992708;28;20263;-21
2024/01/16 09:20:07;;;;;;;3.33;1.77;;;2.90;99.90;;;;;;4979800;28;20062;-20
2024/01/16 09:22:33;;;;;;;5.30;2.70;;;2.80;99.90;;;;;;4992717;28;20276;-21
2024/01/16 09:24:59;;;;;;;5.25;2.60;;;2.80;99.90;;;;;;4991656;28;20041;-19
2024/01/16 09:27:24;;;;;;;6.72;2.30;;;2.80;99.90;;;;;;4996247;28;20080;-20
2024/01/16 09:29:51;;;;;;;4.57;2.30;;;2.90;99.90;;;;;;4992245;28;20040;-21
2024/01/16 09:32:16;;;;;;;4.43;2.00;;;2.90;99.90;;;;;;4978199;28;20081;-21
2024/01/16 09:34:42;;;;;;;4.63;2.30;;;2.90;99.90;;;;;;4992904;28;20030;-20
2024/01/16 09:37:07;;;;;;;4.43;2.10;;;3.00;99.90;;;;;;4995649;28;20054;-21
2024/01/16 09:39:34;;;;;;;4.70;1.87;;;3.20;99.90;;;;;;4989861;28;20046;-21
2024/01/16 09:42:04;;;;;;;6.18;2.67;;;3.20;99.90;;;;;;4989898;28;20081;-20
2024/01/16 09:44:30;;;;;;;5.20;2.30;;;3.30;99.90;;;;;;4989601;28;20050;-19
2024/01/16 09:46:57;;;;;;;3.77;2.10;;;3.50;99.90;;;;;;4989418;28;20046;-20
2024/01/16 09:49:23;;;;;;;4.15;1.90;;;3.70;99.90;;;;;;4973590;28;20030;-20
2024/01/16 09:51:49;;;;;;;4.38;2.13;;;3.90;99.90;;;;;;4991955;28;20038;-21
2024/01/16 09:54:15;;;;;;;5.27;1.83;;;4.20;99.90;;;;;;4990074;28;20061;-22
2024/01/16 09:56:45;;;;;;;3.30;1.80;;;4.60;99.90;;;;;;4989975;28;20278;-22
2024/01/16 09:59:18;;;;;;;5.43;2.40;;;5.00;99.90;;;;;;4989305;28;20027;-24
2024/01/16 10:01:44;;;;;;;6.93;2.40;;;5.50;99.90;;;;;;4956459;28;20034;-21
2024/01/16 10:04:10;;;;;;;4.10;2.20;;;6.00;99.90;;;;;;4987482;28;20078;-24
2024/01/16 10:06:38;;;;;;;4.30;2.22;;;6.40;99.90;;;;;;4986825;28;20293;-22
2024/01/16 10:09:04;;;;;;;4.90;2.30;;;6.80;99.90;;;;;;4989965;28;20046;-23
2024/01/16 10:11:32;;;;;;;4.07;2.50;;;7.10;99.90;;;;;;4989289;28;20327;-21
2024/01/16 10:13:59;;;;;;;3.78;1.90;;;7.40;99.90;;;;;;4979819;28;20094;-22
2024/01/16 10:17:05;;;;;;;3.40;1.88;;;7.70;99.90;;;;;;4988188;28;20046;-22
2024/01/16 10:19:31;;;;;;;2.90;1.77;;;8.00;99.90;;;;;;4988402;28;20034;-23
2024/01/16 10:22:04;;;;;;;3.83;1.80;;;8.30;99.90;;;;;;4989049;28;20053;-23
2024/01/16 10:24:31;;;;;;;3.05;1.80;;;8.70;99.90;;;;;;4989750;28;20034;-23
2024/01/16 10:27:02;;;;;;;3.58;1.77;;;9.00;99.90;;;;;;4977516;28;20335;-23
2024/01/16 10:29:28;;;;;;;4.28;2.08;;;9.30;99.90;;;;;;4989687;28;20074;-22
2024/01/16 10:31:54;;;;;;;2.83;1.70;;;9.60;99.90;;;;;;4990387;28;20033;-24
2024/01/16 10:34:23;;;;;;;4.93;1.95;;;9.90;99.90;;;;;;4990484;28;20051;-22
2024/01/16 10:36:52;;;;;;;5.70;2.33;;;10.20;99.90;;;;;;4990962;28;20330;-21
2024/01/16 10:39:18;;;;;;;2.70;1.95;;;10.60;99.90;;;;;;4990018;28;20065;-21
2024/01/16 10:42:04;;;;;;;3.30;2.10;;;10.70;99.90;;;;;;4991118;28;20038;-21
2024/01/16 10:44:31;;;;;;;3.08;1.95;;;11.10;99.90;;;;;;4989263;28;20354;-22
2024/01/16 10:47:11;;;;;;;4.75;2.13;;;11.30;99.90;;;;;;4972868;28;20064;-22
2024/01/16 10:49:37;;;;;;;3.85;1.75;;;11.50;99.90;;;;;;4976233;28;20247;-23
2024/01/16 10:52:09;;;;;;;4.37;1.80;;;11.80;99.90;;;;;;4971918;28;20060;-21
2024/01/16 10:54:37;;;;;;;3.35;1.80;;;11.90;99.90;;;;;;4989244;28;20149;-22
2024/01/16 10:57:04;;;;;;;2.80;1.70;;;12.00;99.90;;;;;;4975602;28;20038;-22
2024/01/16 10:59:46;;;;;;;3.55;1.92;;;12.10;99.90;;;;;;4992787;28;20034;-24
2024/01/16 11:02:15;;;;;;;2.83;2.00;;;12.30;99.90;;;;;;4985241;28;20302;-20
2024/01/16 11:04:43;;;;;;;2.70;1.47;;;12.50;99.90;;;;;;4988365;28;20072;-20
2024/01/16 11:07:09;;;;;;;2.80;1.70;;;12.70;99.90;;;;;;4988656;28;20449;-19
2024/01/16 11:09:35;;;;;;;3.15;1.50;;;12.90;99.90;;;;;;4991810;28;20038;-20
2024/01/16 11:12:01;;;;;;;2.72;1.65;;;13.10;99.90;;;;;;4992338;28;20051;-19
2024/01/16 11:14:30;;;;;;;3.08;1.55;;;13.20;99.90;;;;;;4973180;28;20030;-20
2024/01/16 11:16:57;;;;;;;3.57;1.80;;;13.40;99.90;;;;;;4993652;28;20037;-18
2024/01/16 11:19:24;;;;;;;2.83;1.65;;;13.60;99.90;;;;;;4990846;28;20060;-20
2024/01/16 11:21:50;;;;;;;3.67;1.90;;;13.80;99.90;;;;;;4972426;28;20066;-19
2024/01/16 11:24:16;;;;;;;4.55;1.90;;;13.80;99.90;;;;;;4968907;28;20437;-19
2024/01/16 11:26:41;;;;;;;3.60;1.50;;;13.90;99.90;;;;;;4986145;28;20298;-20
2024/01/16 11:29:26;;;;;;;3.28;1.70;;;13.90;99.90;;;;;;4972003;28;20042;-21
2024/01/16 11:31:52;;;;;;;3.90;1.55;;;13.90;99.90;;;;;;4990681;28;20049;-20
2024/01/16 11:34:40;;;;;;;2.87;1.63;;;13.90;99.90;;;;;;4988749;28;20033;-21
2024/01/16 11:37:07;;;;;;;3.25;1.60;;;13.90;99.90;;;;;;4992779;28;20192;-19
2024/01/16 11:39:33;;;;;;;2.60;1.40;;;14.00;99.90;;;;;;4990395;28;20042;-19
2024/01/16 11:42:02;;;;;;;3.10;1.60;;;14.00;99.90;;;;;;4973769;28;20034;-19
2024/01/16 11:44:37;;;;;;;3.10;1.63;;;14.00;99.90;;;;;;4989663;28;20050;-19
2024/01/16 11:47:06;;;;;;;2.28;1.30;;;14.00;99.90;;;;;;4993501;28;20034;-18
2024/01/16 11:49:32;;;;;;;3.17;1.52;;;14.00;99.90;;;;;;4973007;28;20042;-19
2024/01/16 11:51:59;;;;;;;2.92;1.80;;;14.10;99.90;;;;;;4992941;28;20242;-19
2024/01/16 11:54:25;;;;;;;2.87;1.60;;;14.10;99.90;;;;;;4994001;28;20050;-20
2024/01/16 11:57:09;;;;;;;3.47;1.70;;;14.20;99.90;;;;;;4970840;28;20039;-21
2024/01/16 11:59:47;;;;;;;3.08;1.70;;;14.20;99.90;;;;;;4996273;28;20107;-19
2024/01/16 12:02:20;;;;;;;4.13;1.45;;;14.20;99.90;;;;;;4993303;28;20621;-19
2024/01/16 12:05:03;;;;;;;2.83;1.50;;;14.20;99.90;;;;;;4996480;28;20230;-19
2024/01/16 12:07:29;;;;;;;3.10;1.30;;;14.10;99.90;;;;;;4991998;28;20030;-20
2024/01/16 12:10:00;;;;;;;3.30;1.48;;;14.00;99.90;;;;;;4992778;28;20052;-20
2024/01/16 12:12:26;;;;;;;3.00;1.50;;;13.80;99.90;;;;;;4993418;28;20473;-19
2024/01/16 12:14:53;;;;;;;2.07;1.30;;;13.70;99.90;;;;;;4982853;28;20323;-19
2024/01/16 12:17:20;;;;;;;3.15;1.42;;;13.50;99.90;;;;;;4990226;28;20034;-21
2024/01/16 12:19:46;;;;;;;2.95;1.50;;;13.40;99.90;;;;;;4973326;28;20302;-19
2024/01/16 12:22:21;;;;;;;2.10;1.40;;;13.10;99.90;;;;;;4981415;28;20080;-20
2024/01/16 12:24:47;;;;;;;2.95;1.38;;;12.90;99.90;;;;;;4995283;28;20049;-20
2024/01/16 12:27:13;;;;;;;2.80;1.30;;;12.60;99.90;;;;;;4993186;28;20073;-21
2024/01/16 12:29:41;;;;;;;2.35;1.23;;;12.30;99.90;;;;;;4993182;28;20034;-20
2024/01/16 12:32:10;;;;;;;3.25;1.35;;;11.90;99.90;;;;;;4988700;28;20129;-20
2024/01/16 12:34:52;;;;;;;3.83;1.50;;;11.60;99.90;;;;;;4990589;28;20338;-20
2024/01/16 12:37:18;;;;;;;3.20;1.30;;;11.40;99.90;;;;;;4972707;28;20265;-20
2024/01/16 12:39:43;;;;;;;3.20;1.50;;;11.30;99.90;;;;;;4992397;28;20042;-20
2024/01/16 12:42:11;;;;;;;4.23;1.50;;;11.20;99.90;;;;;;4970267;28;20065;-22
2024/01/16 12:44:37;;;;;;;2.50;1.30;;;11.20;99.90;;;;;;4991219;28;20291;-21
2024/01/16 12:47:03;;;;;;;3.38;1.50;;;11.20;99.90;;;;;;4991290;28;20323;-21
2024/01/16 12:49:29;;;;;;;3.25;1.40;;;11.20;99.90;;;;;;4989641;28;20042;-21
2024/01/16 12:52:18;;;;;;;2.80;1.50;;;11.20;99.90;;;;;;4990043;28;20251;-21
2024/01/16 12:54:44;;;;;;;3.00;1.30;;;11.20;99.90;;;;;;4991544;28;20230;-22